createdAt,value
2018-11-01T00:00:23.537Z,12.60
2018-11-01T00:02:49.866Z,12.58
2018-11-01T00:05:16.172Z,12.50
2018-11-01T00:07:42.503Z,12.48
2018-11-01T00:10:08.903Z,12.54
2018-11-01T00:12:35.213Z,12.49
2018-11-01T00:15:01.537Z,12.45
2018-11-01T00:17:28.019Z,12.35
2018-11-01T00:19:54.170Z,12.35
2018-11-01T00:22:20.473Z,12.46
2018-11-01T00:24:46.798Z,12.47
2018-11-01T00:27:13.163Z,12.39
2018-11-01T00:29:39.486Z,12.34
2018-11-01T00:32:05.786Z,12.30
2018-11-01T00:34:32.089Z,12.30
2018-11-01T00:36:58.419Z,12.25
2018-11-01T00:39:24.722Z,12.25
2018-11-01T00:41:51.060Z,12.35
2018-11-01T00:44:17.382Z,12.42
2018-11-01T00:46:43.682Z,12.41
2018-11-01T00:49:10.011Z,12.45
2018-11-01T00:51:36.334Z,12.51
2018-11-01T00:54:02.679Z,12.73
2018-11-01T00:56:28.997Z,12.90
2018-11-01T00:58:55.296Z,12.89
2018-11-01T01:01:21.641Z,12.48
2018-11-01T01:03:47.968Z,12.22
2018-11-01T01:06:14.273Z,12.23
2018-11-01T01:08:40.598Z,12.22
2018-11-01T01:11:06.933Z,12.21
2018-11-01T01:13:33.231Z,12.31
2018-11-01T01:15:59.626Z,12.37
2018-11-01T01:18:25.954Z,12.37
2018-11-01T01:20:52.281Z,12.33
2018-11-01T01:23:18.611Z,12.37
2018-11-01T01:25:44.934Z,12.45
2018-11-01T01:28:11.241Z,12.41
2018-11-01T01:30:37.563Z,12.53
2018-11-01T01:33:03.901Z,12.59
2018-11-01T01:35:30.209Z,12.68
2018-11-01T01:37:56.515Z,12.71
2018-11-01T01:40:22.842Z,12.87
2018-11-01T01:42:49.171Z,13.01
2018-11-01T01:45:15.475Z,12.97
2018-11-01T01:47:41.776Z,12.83
2018-11-01T01:50:08.102Z,12.60
2018-11-01T01:52:34.448Z,12.47
2018-11-01T01:55:00.777Z,12.40
2018-11-01T01:57:27.076Z,12.25
2018-11-01T01:59:53.376Z,12.04
2018-11-01T02:02:19.722Z,12.07
2018-11-01T02:04:46.025Z,12.00
2018-11-01T02:07:12.348Z,11.99
2018-11-01T02:09:38.653Z,11.93
2018-11-01T02:12:04.957Z,11.82
2018-11-01T02:14:31.282Z,11.74
2018-11-01T02:16:57.584Z,11.62
2018-11-01T02:19:23.889Z,11.75
2018-11-01T02:21:50.198Z,11.81
2018-11-01T02:24:16.520Z,11.73
2018-11-01T02:26:42.854Z,11.79
2018-11-01T02:29:09.180Z,11.75
2018-11-01T02:31:35.512Z,12.13
2018-11-01T02:34:01.880Z,12.24
2018-11-01T02:36:28.180Z,12.24
2018-11-01T02:38:54.530Z,12.01
2018-11-01T02:41:20.830Z,12.04
2018-11-01T02:43:47.141Z,11.97
2018-11-01T02:46:13.445Z,12.05
2018-11-01T02:48:39.749Z,12.12
2018-11-01T02:51:06.082Z,11.97
2018-11-01T02:53:32.401Z,11.89
2018-11-01T02:55:58.795Z,12.20
2018-11-01T02:58:25.100Z,12.34
2018-11-01T03:00:51.405Z,12.42
2018-11-01T03:03:17.734Z,12.23
2018-11-01T03:05:44.062Z,12.17
2018-11-01T03:08:10.368Z,12.20
2018-11-01T03:10:36.673Z,12.38
2018-11-01T03:13:03.020Z,12.50
2018-11-01T03:15:29.322Z,12.40
2018-11-01T03:17:55.625Z,12.19
2018-11-01T03:20:21.935Z,12.04
2018-11-01T03:22:48.228Z,12.08
2018-11-01T03:25:14.558Z,12.07
2018-11-01T03:27:40.867Z,11.99
2018-11-01T03:30:07.195Z,12.00
2018-11-01T03:32:33.529Z,12.02
2018-11-01T03:34:59.860Z,12.30
2018-11-01T03:37:26.164Z,12.38
2018-11-01T03:39:52.471Z,12.27
2018-11-01T03:42:18.805Z,12.10
2018-11-01T03:44:45.109Z,11.99
2018-11-01T03:47:11.458Z,12.01
2018-11-01T03:49:37.792Z,11.97
2018-11-01T03:52:04.331Z,12.01
2018-11-01T03:54:30.558Z,12.20
2018-11-01T03:56:56.860Z,12.11
2018-11-01T03:59:23.162Z,12.04
2018-11-01T04:01:49.466Z,11.93
2018-11-01T04:04:15.769Z,12.02
2018-11-01T04:06:42.156Z,12.21
2018-11-01T04:09:08.489Z,12.42
2018-11-01T04:11:34.809Z,12.52
2018-11-01T04:14:01.110Z,12.50
2018-11-01T04:16:27.444Z,12.46
2018-11-01T04:18:53.741Z,12.45
2018-11-01T04:21:20.049Z,12.29
2018-11-01T04:23:46.383Z,12.22
2018-11-01T04:26:12.692Z,12.19
2018-11-01T04:28:39.031Z,12.28
2018-11-01T04:31:05.338Z,12.44
2018-11-01T04:33:31.766Z,12.61
2018-11-01T04:35:58.033Z,12.74
2018-11-01T04:38:24.338Z,12.74
2018-11-01T04:40:50.664Z,12.76
2018-11-01T04:43:16.978Z,12.77
2018-11-01T04:45:43.278Z,12.79
2018-11-01T04:48:09.587Z,12.69
2018-11-01T04:50:35.909Z,12.57
2018-11-01T04:53:02.233Z,12.47
2018-11-01T04:55:28.568Z,12.68
2018-11-01T04:57:54.890Z,12.74
2018-11-01T05:00:21.247Z,12.84
2018-11-01T05:02:47.555Z,12.98
2018-11-01T05:05:14.030Z,13.23
2018-11-01T05:07:40.218Z,13.34
2018-11-01T05:10:06.549Z,13.30
2018-11-01T05:12:32.896Z,13.18
2018-11-01T05:14:59.225Z,13.07
2018-11-01T05:17:25.509Z,13.08
2018-11-01T05:19:51.837Z,13.08
2018-11-01T05:22:18.150Z,13.10
2018-11-01T05:24:44.546Z,13.26
2018-11-01T05:27:10.839Z,13.39
2018-11-01T05:29:37.183Z,13.55
2018-11-01T05:32:03.444Z,13.52
2018-11-01T05:34:29.816Z,13.41
2018-11-01T05:36:56.104Z,13.31
2018-11-01T05:39:22.431Z,13.40
2018-11-01T05:41:48.741Z,13.54
2018-11-01T05:44:15.062Z,13.44
2018-11-01T05:46:41.364Z,13.42
2018-11-01T05:49:07.695Z,13.48
2018-11-01T05:51:34.026Z,13.55
2018-11-01T05:54:00.341Z,13.72
2018-11-01T05:56:26.645Z,13.97
2018-11-01T05:58:52.973Z,14.00
2018-11-01T06:01:19.300Z,13.98
2018-11-01T06:03:45.629Z,13.86
2018-11-01T06:06:11.965Z,13.86
2018-11-01T06:08:38.314Z,14.02
2018-11-01T06:11:04.608Z,14.33
2018-11-01T06:13:30.934Z,14.45
2018-11-01T06:15:57.245Z,14.49
2018-11-01T06:18:23.571Z,14.44
2018-11-01T06:20:49.923Z,14.46
2018-11-01T06:23:16.228Z,14.44
2018-11-01T06:25:42.557Z,14.39
2018-11-01T06:28:08.896Z,14.39
2018-11-01T06:30:35.223Z,14.41
2018-11-01T06:33:01.534Z,14.39
2018-11-01T06:35:27.874Z,14.39
2018-11-01T06:37:54.171Z,14.36
2018-11-01T06:40:20.502Z,14.33
2018-11-01T06:42:46.834Z,14.30
2018-11-01T06:45:13.161Z,14.29
2018-11-01T06:47:39.491Z,14.28
2018-11-01T06:50:05.843Z,14.30
2018-11-01T06:52:32.185Z,14.25
2018-11-01T06:54:58.466Z,14.25
2018-11-01T06:57:24.804Z,14.31
2018-11-01T06:59:51.128Z,14.30
2018-11-01T07:02:17.431Z,14.30
2018-11-01T07:04:43.737Z,14.37
2018-11-01T07:07:10.040Z,14.33
2018-11-01T07:09:36.365Z,14.32
2018-11-01T07:12:02.674Z,14.52
2018-11-01T07:14:28.995Z,14.75
2018-11-01T07:16:55.377Z,14.86
2018-11-01T07:19:21.622Z,14.92
2018-11-01T07:21:47.946Z,14.98
2018-11-01T07:24:14.280Z,15.08
2018-11-01T07:26:40.653Z,15.12
2018-11-01T07:29:06.951Z,15.27
2018-11-01T07:31:33.285Z,15.44
2018-11-01T07:33:59.646Z,15.42
2018-11-01T07:36:25.968Z,15.47
2018-11-01T07:38:52.276Z,15.75
2018-11-01T07:41:18.607Z,16.08
2018-11-01T07:43:44.938Z,16.13
2018-11-01T07:46:11.255Z,16.49
2018-11-01T07:48:37.640Z,16.85
2018-11-01T07:51:03.924Z,17.34
2018-11-01T07:53:30.261Z,17.45
2018-11-01T07:55:56.568Z,17.50
2018-11-01T07:58:22.946Z,17.53
2018-11-01T08:00:49.202Z,17.36
2018-11-01T08:03:15.519Z,17.29
2018-11-01T08:05:41.850Z,17.34
2018-11-01T08:08:08.152Z,17.20
2018-11-01T08:10:34.455Z,17.08
2018-11-01T08:13:00.771Z,17.17
2018-11-01T08:15:27.099Z,17.27
2018-11-01T08:17:53.422Z,17.21
2018-11-01T08:20:19.966Z,17.27
2018-11-01T08:22:46.058Z,17.37
2018-11-01T08:25:12.415Z,17.44
2018-11-01T08:27:38.728Z,17.64
2018-11-01T08:30:05.043Z,17.76
2018-11-01T08:32:31.453Z,17.59
2018-11-01T08:34:57.788Z,17.53
2018-11-01T08:37:24.087Z,17.57
2018-11-01T08:39:50.396Z,17.59
2018-11-01T08:42:16.725Z,17.53
2018-11-01T08:44:43.091Z,17.67
2018-11-01T08:47:09.392Z,17.84
2018-11-01T08:49:35.787Z,17.77
2018-11-01T08:52:02.061Z,17.66
2018-11-01T08:54:28.373Z,17.76
2018-11-01T08:56:54.699Z,18.07
2018-11-01T08:59:21.007Z,18.44
2018-11-01T09:01:47.389Z,18.83
2018-11-01T09:04:13.713Z,19.02
2018-11-01T09:06:40.015Z,19.25
2018-11-01T09:09:06.356Z,19.32
2018-11-01T09:11:32.683Z,19.05
2018-11-01T09:13:59.053Z,18.85
2018-11-01T09:16:25.359Z,18.77
2018-11-01T09:18:51.733Z,18.86
2018-11-01T09:21:18.055Z,18.90
2018-11-01T09:23:44.379Z,19.17
2018-11-01T09:26:10.706Z,19.28
2018-11-01T09:28:37.063Z,19.27
2018-11-01T09:31:03.419Z,19.64
2018-11-01T09:33:29.722Z,19.77
2018-11-01T09:35:56.020Z,19.81
2018-11-01T09:38:22.327Z,19.84
2018-11-01T09:40:48.647Z,19.94
2018-11-01T09:43:14.954Z,20.39
2018-11-01T09:45:41.290Z,21.04
2018-11-01T09:48:07.586Z,21.21
2018-11-01T09:50:33.961Z,21.41
2018-11-01T09:53:00.260Z,22.10
2018-11-01T09:55:26.689Z,22.30
2018-11-01T09:57:53.039Z,22.07
2018-11-01T10:00:19.342Z,21.26
2018-11-01T10:02:45.649Z,20.59
2018-11-01T10:05:11.953Z,20.26
2018-11-01T10:07:38.265Z,20.11
2018-11-01T10:10:04.671Z,20.02
2018-11-01T10:12:30.965Z,20.13
2018-11-01T10:14:57.330Z,20.15
2018-11-01T10:17:23.955Z,20.19
2018-11-01T10:19:49.901Z,20.26
2018-11-01T10:22:16.240Z,20.28
2018-11-01T10:24:42.514Z,20.12
2018-11-01T10:27:08.838Z,20.08
2018-11-01T10:29:35.172Z,19.99
2018-11-01T10:32:01.502Z,20.06
2018-11-01T10:34:27.804Z,20.06
2018-11-01T10:36:54.165Z,20.14
2018-11-01T10:39:20.491Z,20.16
2018-11-01T10:41:46.789Z,20.21
2018-11-01T10:44:13.092Z,20.27
2018-11-01T10:46:39.427Z,20.41
2018-11-01T10:49:05.754Z,20.49
2018-11-01T10:51:32.090Z,20.52
2018-11-01T10:53:58.482Z,20.46
2018-11-01T10:56:24.766Z,20.58
2018-11-01T10:58:51.072Z,20.74
2018-11-01T11:01:17.587Z,20.75
2018-11-01T11:03:43.740Z,20.86
2018-11-01T11:06:10.046Z,20.93
2018-11-01T11:08:36.407Z,21.02
2018-11-01T11:11:02.740Z,21.06
2018-11-01T11:13:29.040Z,21.21
2018-11-01T11:15:55.350Z,21.21
2018-11-01T11:18:21.710Z,21.13
2018-11-01T11:20:48.270Z,21.05
2018-11-01T11:23:14.333Z,20.94
2018-11-01T11:25:40.671Z,20.97
2018-11-01T11:28:06.996Z,21.07
2018-11-01T11:30:33.455Z,21.12
2018-11-01T11:32:59.636Z,21.16
2018-11-01T11:35:25.998Z,21.21
2018-11-01T11:37:52.282Z,21.20
2018-11-01T11:40:18.621Z,21.34
2018-11-01T11:42:44.949Z,21.42
2018-11-01T11:45:11.251Z,21.53
2018-11-01T11:47:37.584Z,21.69
2018-11-01T11:50:03.913Z,21.73
2018-11-01T11:52:30.246Z,21.75
2018-11-01T11:54:56.578Z,21.86
2018-11-01T11:57:22.881Z,21.91
2018-11-01T11:59:49.193Z,21.93
2018-11-01T12:02:15.562Z,21.97
2018-11-01T12:04:41.827Z,21.99
2018-11-01T12:07:08.167Z,22.06
2018-11-01T12:09:34.472Z,22.08
2018-11-01T12:12:00.797Z,22.06
2018-11-01T12:14:27.136Z,22.01
2018-11-01T12:16:53.407Z,21.96
2018-11-01T12:19:19.708Z,21.84
2018-11-01T12:21:46.013Z,21.90
2018-11-01T12:24:12.318Z,22.02
2018-11-01T12:26:38.615Z,22.06
2018-11-01T12:29:04.981Z,22.00
2018-11-01T12:31:31.257Z,22.00
2018-11-01T12:33:57.567Z,22.06
2018-11-01T12:36:23.905Z,22.02
2018-11-01T12:38:50.235Z,21.95
2018-11-01T12:41:16.566Z,21.90
2018-11-01T12:43:42.929Z,21.92
2018-11-01T12:46:09.255Z,21.95
2018-11-01T12:48:35.562Z,21.89
2018-11-01T12:51:01.882Z,21.92
2018-11-01T12:53:28.183Z,21.96
2018-11-01T12:55:54.542Z,22.00
2018-11-01T12:58:20.874Z,22.10
2018-11-01T13:00:47.175Z,22.09
2018-11-01T13:03:13.505Z,22.13
2018-11-01T13:05:39.822Z,22.17
2018-11-01T13:08:06.121Z,22.28
2018-11-01T13:10:32.482Z,22.33
2018-11-01T13:12:58.798Z,22.34
2018-11-01T13:15:25.100Z,22.35
2018-11-01T13:17:51.526Z,22.34
2018-11-01T13:20:17.770Z,22.37
2018-11-01T13:22:44.099Z,22.43
2018-11-01T13:25:10.436Z,22.45
2018-11-01T13:27:36.786Z,22.46
2018-11-01T13:30:03.115Z,22.50
2018-11-01T13:32:29.447Z,22.51
2018-11-01T13:34:55.855Z,22.49
2018-11-01T13:37:22.081Z,22.51
2018-11-01T13:39:48.528Z,22.49
2018-11-01T13:42:14.687Z,22.47
2018-11-01T13:44:41.012Z,22.43
2018-11-01T13:47:07.369Z,22.37
2018-11-01T13:49:33.672Z,22.34
2018-11-01T13:52:00.053Z,22.28
2018-11-01T13:54:26.390Z,22.28
2018-11-01T13:56:52.696Z,22.22
2018-11-01T13:59:19.019Z,22.18
2018-11-01T14:01:45.366Z,22.17
2018-11-01T14:04:11.687Z,22.13
2018-11-01T14:06:38.011Z,22.10
2018-11-01T14:09:04.338Z,22.07
2018-11-01T14:11:30.634Z,22.04
2018-11-01T14:13:57.460Z,22.01
2018-11-01T14:16:23.326Z,21.98
2018-11-01T14:18:49.605Z,21.94
2018-11-01T14:21:15.933Z,21.91
2018-11-01T14:23:42.230Z,21.89
2018-11-01T14:26:08.541Z,21.85
2018-11-01T14:28:34.867Z,21.82
2018-11-01T14:31:01.218Z,21.79
2018-11-01T14:33:27.502Z,21.74
2018-11-01T14:35:53.803Z,21.71
2018-11-01T14:38:20.103Z,21.67
2018-11-01T14:40:46.427Z,21.63
2018-11-01T14:43:12.735Z,21.60
2018-11-01T14:45:39.042Z,21.58
2018-11-01T14:48:05.369Z,21.55
2018-11-01T14:50:31.678Z,21.52
2018-11-01T14:52:58.636Z,21.47
2018-11-01T14:55:25.342Z,21.42
2018-11-01T14:57:52.151Z,21.38
2018-11-01T15:00:16.941Z,21.36
2018-11-01T15:02:43.338Z,21.33
2018-11-01T15:05:09.544Z,21.29
2018-11-01T15:07:35.848Z,21.25
2018-11-01T15:10:02.193Z,21.20
2018-11-01T15:12:28.514Z,21.16
2018-11-01T15:14:54.872Z,21.16
2018-11-01T15:17:21.174Z,21.12
2018-11-01T15:19:47.535Z,21.10
2018-11-01T15:22:13.850Z,21.07
2018-11-01T15:24:40.148Z,21.02
2018-11-01T15:27:06.476Z,20.93
2018-11-01T15:29:32.808Z,20.83
2018-11-01T15:31:59.152Z,20.75
2018-11-01T15:34:25.459Z,20.72
2018-11-01T15:36:51.797Z,20.72
2018-11-01T15:39:18.119Z,20.75
2018-11-01T15:41:44.444Z,20.72
2018-11-01T15:44:10.814Z,20.70
2018-11-01T15:46:37.142Z,20.68
2018-11-01T15:49:03.518Z,20.64
2018-11-01T15:51:29.842Z,20.60
2018-11-01T15:53:56.150Z,20.55
2018-11-01T15:56:22.563Z,20.51
2018-11-01T15:58:48.832Z,20.45
2018-11-01T16:01:15.154Z,20.40
2018-11-01T16:03:41.510Z,20.37
2018-11-01T16:06:07.866Z,20.31
2018-11-01T16:08:34.189Z,20.26
2018-11-01T16:11:00.497Z,20.21
2018-11-01T16:13:26.806Z,20.19
2018-11-01T16:15:53.111Z,20.35
2018-11-01T16:18:19.434Z,20.31
2018-11-01T16:20:45.742Z,20.27
2018-11-01T16:23:12.124Z,20.22
2018-11-01T16:25:38.393Z,20.16
2018-11-01T16:28:04.730Z,20.07
2018-11-01T16:30:31.098Z,20.01
2018-11-01T16:32:57.396Z,20.05
2018-11-01T16:35:23.703Z,20.04
2018-11-01T16:37:50.035Z,20.01
2018-11-01T16:40:16.357Z,19.97
2018-11-01T16:42:42.862Z,19.93
2018-11-01T16:45:09.091Z,19.88
2018-11-01T16:47:35.342Z,19.82
2018-11-01T16:50:01.700Z,19.78
2018-11-01T16:52:27.999Z,19.73
2018-11-01T16:54:54.297Z,19.69
2018-11-01T16:57:20.623Z,19.65
2018-11-01T16:59:46.913Z,19.60
2018-11-01T17:02:13.246Z,19.53
2018-11-01T17:04:39.568Z,19.50
2018-11-01T17:07:05.889Z,19.45
2018-11-01T17:09:32.246Z,19.37
2018-11-01T17:11:58.582Z,19.17
2018-11-01T17:14:24.907Z,19.11
2018-11-01T17:16:51.213Z,19.05
2018-11-01T17:19:17.534Z,18.93
2018-11-01T17:21:43.857Z,18.81
2018-11-01T17:24:10.199Z,18.79
2018-11-01T17:26:36.470Z,18.80
2018-11-01T17:29:02.821Z,18.80
2018-11-01T17:31:29.131Z,18.84
2018-11-01T17:33:55.535Z,18.85
2018-11-01T17:36:21.817Z,18.85
2018-11-01T17:38:48.124Z,18.91
2018-11-01T17:41:14.454Z,18.93
2018-11-01T17:43:40.749Z,18.89
2018-11-01T17:46:07.219Z,18.88
2018-11-01T17:48:33.383Z,18.93
2018-11-01T17:50:59.751Z,18.95
2018-11-01T17:53:26.054Z,19.01
2018-11-01T17:55:52.356Z,19.08
2018-11-01T17:58:18.692Z,19.09
2018-11-01T18:00:44.988Z,19.12
2018-11-01T18:03:11.352Z,19.09
2018-11-01T18:05:37.652Z,19.09
2018-11-01T18:08:03.974Z,19.13
2018-11-01T18:10:30.280Z,19.13
2018-11-01T18:12:56.608Z,19.12
2018-11-01T18:15:22.930Z,19.10
2018-11-01T18:17:49.239Z,19.03
2018-11-01T18:20:15.544Z,19.03
2018-11-01T18:22:41.846Z,19.07
2018-11-01T18:25:08.175Z,19.06
2018-11-01T18:27:34.481Z,19.07
2018-11-01T18:30:00.811Z,19.10
2018-11-01T18:32:27.251Z,19.11
2018-11-01T18:34:53.444Z,19.09
2018-11-01T18:37:19.767Z,19.07
2018-11-01T18:39:46.109Z,19.02
2018-11-01T18:42:12.473Z,19.00
2018-11-01T18:44:38.774Z,18.97
2018-11-01T18:47:05.171Z,18.93
2018-11-01T18:49:31.476Z,18.91
2018-11-01T18:51:57.798Z,18.90
2018-11-01T18:54:24.189Z,18.87
2018-11-01T18:56:50.439Z,18.84
2018-11-01T18:59:16.808Z,18.79
2018-11-01T19:01:43.110Z,18.75
2018-11-01T19:04:09.437Z,18.70
2018-11-01T19:06:35.765Z,18.66
2018-11-01T19:09:02.069Z,18.63
2018-11-01T19:11:28.422Z,18.59
2018-11-01T19:16:21.028Z,18.55
2018-11-01T19:18:47.353Z,18.53
2018-11-01T19:21:13.656Z,18.50
2018-11-01T19:23:39.956Z,18.47
2018-11-01T19:26:06.281Z,18.45
2018-11-01T19:28:32.581Z,18.43
2018-11-01T19:30:58.904Z,18.40
2018-11-01T19:33:25.248Z,18.37
2018-11-01T19:35:51.574Z,18.35
2018-11-01T19:38:17.874Z,18.31
2018-11-01T19:40:44.180Z,18.27
2018-11-01T19:43:10.509Z,18.25
2018-11-01T19:45:36.816Z,18.23
2018-11-01T19:48:03.121Z,18.20
2018-11-01T19:50:29.486Z,18.18
2018-11-01T19:52:55.785Z,18.16
2018-11-01T19:55:22.088Z,18.11
2018-11-01T19:57:48.424Z,18.07
2018-11-01T20:00:14.761Z,18.05
2018-11-01T20:02:41.106Z,18.02
2018-11-01T20:05:07.428Z,17.99
2018-11-01T20:07:33.755Z,18.00
2018-11-01T20:10:00.136Z,18.05
2018-11-01T20:12:26.424Z,18.04
2018-11-01T20:14:52.824Z,18.02
2018-11-01T20:17:19.057Z,18.01
2018-11-01T20:19:45.454Z,18.01
2018-11-01T20:22:11.789Z,18.02
2018-11-01T20:24:38.062Z,18.09
2018-11-01T20:27:04.473Z,18.10
2018-11-01T20:29:30.796Z,18.07
2018-11-01T20:31:57.128Z,18.10
2018-11-01T20:34:24.012Z,18.10
2018-11-01T20:36:50.402Z,18.10
2018-11-01T20:39:16.735Z,18.12
2018-11-01T20:41:43.112Z,18.09
2018-11-01T20:44:09.545Z,18.05
2018-11-01T20:46:35.909Z,18.01
2018-11-01T20:49:02.274Z,17.98
2018-11-01T20:51:28.698Z,17.94
2018-11-01T20:53:55.009Z,17.91
2018-11-01T20:56:21.319Z,17.92
2018-11-01T20:58:47.651Z,17.94
2018-11-01T21:01:13.959Z,17.94
2018-11-01T21:03:40.270Z,17.94
2018-11-01T21:06:06.574Z,17.92
2018-11-01T21:08:32.874Z,17.90
2018-11-01T21:10:59.196Z,17.91
2018-11-01T21:13:25.493Z,17.89
2018-11-01T21:15:51.796Z,17.83
2018-11-01T21:18:18.160Z,17.74
2018-11-01T21:20:44.468Z,17.65
2018-11-01T21:23:10.885Z,17.55
2018-11-01T21:25:37.193Z,17.45
2018-11-01T21:28:03.536Z,17.35
2018-11-01T21:30:29.827Z,17.27
2018-11-01T21:32:56.144Z,17.21
2018-11-01T21:35:22.510Z,17.17
2018-11-01T21:37:48.831Z,17.15
2018-11-01T21:40:15.158Z,17.13
2018-11-01T21:42:41.466Z,17.11
2018-11-01T21:45:07.800Z,17.07
2018-11-01T21:47:34.129Z,17.07
2018-11-01T21:50:00.435Z,17.10
2018-11-01T21:52:26.850Z,17.10
2018-11-01T21:54:53.194Z,17.06
2018-11-01T21:57:19.476Z,17.00
2018-11-01T21:59:45.798Z,16.96
2018-11-01T22:02:12.113Z,16.93
2018-11-01T22:04:38.413Z,16.91
2018-11-01T22:07:04.744Z,16.89
2018-11-01T22:09:31.111Z,16.87
2018-11-01T22:11:57.399Z,16.83
2018-11-01T22:14:23.722Z,16.77
2018-11-01T22:16:50.059Z,16.75
2018-11-01T22:19:16.356Z,16.72
2018-11-01T22:21:42.660Z,16.70
2018-11-01T22:24:08.960Z,16.70
2018-11-01T22:26:35.348Z,16.70
2018-11-01T22:29:01.750Z,16.70
2018-11-01T22:31:28.039Z,16.72
2018-11-01T22:33:54.357Z,16.72
2018-11-01T22:36:20.693Z,16.71
2018-11-01T22:38:47.035Z,16.69
2018-11-01T22:41:13.356Z,16.67
2018-11-01T22:43:39.665Z,16.67
2018-11-01T22:46:05.970Z,16.66
2018-11-01T22:48:32.308Z,16.64
2018-11-01T22:50:58.613Z,16.61
2018-11-01T22:53:24.938Z,16.59
2018-11-01T22:55:51.262Z,16.58
2018-11-01T22:58:17.595Z,16.55
2018-11-01T23:00:43.934Z,16.54
2018-11-01T23:03:10.238Z,16.53
2018-11-01T23:05:36.565Z,16.51
2018-11-01T23:08:02.871Z,16.50
2018-11-01T23:10:29.180Z,16.48
2018-11-01T23:12:55.491Z,16.46
2018-11-01T23:15:21.797Z,16.45
2018-11-01T23:17:48.105Z,16.44
2018-11-01T23:20:14.405Z,16.42
2018-11-01T23:22:40.715Z,16.39
2018-11-01T23:25:07.011Z,16.39
2018-11-01T23:27:33.312Z,16.38
2018-11-01T23:29:59.652Z,16.37
2018-11-01T23:32:25.955Z,16.35
2018-11-01T23:34:52.259Z,16.32
2018-11-01T23:37:18.574Z,16.30
2018-11-01T23:39:44.883Z,16.30
2018-11-01T23:42:11.186Z,16.28
2018-11-01T23:44:37.496Z,16.28
2018-11-01T23:47:03.802Z,16.28
2018-11-01T23:49:30.105Z,16.26
2018-11-01T23:51:56.430Z,16.25
2018-11-01T23:54:22.738Z,16.25
2018-11-01T23:56:49.041Z,16.25
2018-11-01T23:59:15.340Z,16.25
